sensor_id;sensor_type;location;lat;lon;timestamp;P1;durP1;ratioP1;P2;durP2;ratioP2
68976;SDS011;56029;52.568;13.588;2023-03-26T00:00:39;3.47;;;1.73;;
68976;SDS011;56029;52.568;13.588;2023-03-26T00:03:28;4.50;;;2.13;;
68976;SDS011;56029;52.568;13.588;2023-03-26T00:06:10;3.90;;;1.92;;
68976;SDS011;56029;52.568;13.588;2023-03-26T00:08:37;3.30;;;1.80;;
68976;SDS011;56029;52.568;13.588;2023-03-26T00:11:04;3.60;;;1.80;;
68976;SDS011;56029;52.568;13.588;2023-03-26T00:13:31;5.60;;;2.30;;
68976;SDS011;56029;52.568;13.588;2023-03-26T00:15:57;3.88;;;1.98;;
68976;SDS011;56029;52.568;13.588;2023-03-26T00:18:23;4.07;;;1.83;;
68976;SDS011;56029;52.568;13.588;2023-03-26T00:20:54;4.55;;;2.05;;
68976;SDS011;56029;52.568;13.588;2023-03-26T00:23:21;4.60;;;2.10;;
68976;SDS011;56029;52.568;13.588;2023-03-26T00:25:46;5.25;;;2.30;;
68976;SDS011;56029;52.568;13.588;2023-03-26T00:28:15;6.23;;;2.47;;
68976;SDS011;56029;52.568;13.588;2023-03-26T00:30:42;5.97;;;1.98;;
68976;SDS011;56029;52.568;13.588;2023-03-26T00:33:07;4.20;;;1.90;;
68976;SDS011;56029;52.568;13.588;2023-03-26T00:35:36;4.47;;;2.10;;
68976;SDS011;56029;52.568;13.588;2023-03-26T00:38:03;4.28;;;2.25;;
68976;SDS011;56029;52.568;13.588;2023-03-26T00:40:28;3.87;;;1.83;;
68976;SDS011;56029;52.568;13.588;2023-03-26T00:42:54;4.68;;;2.03;;
68976;SDS011;56029;52.568;13.588;2023-03-26T00:45:20;5.33;;;2.20;;
68976;SDS011;56029;52.568;13.588;2023-03-26T00:47:46;4.43;;;1.90;;
68976;SDS011;56029;52.568;13.588;2023-03-26T00:50:12;6.10;;;1.80;;
68976;SDS011;56029;52.568;13.588;2023-03-26T00:52:43;3.97;;;1.88;;
68976;SDS011;56029;52.568;13.588;2023-03-26T00:55:10;4.60;;;2.00;;
68976;SDS011;56029;52.568;13.588;2023-03-26T00:57:36;4.30;;;1.60;;
68976;SDS011;56029;52.568;13.588;2023-03-26T01:00:09;4.73;;;2.00;;
68976;SDS011;56029;52.568;13.588;2023-03-26T01:02:38;2.30;;;1.33;;
68976;SDS011;56029;52.568;13.588;2023-03-26T01:08:01;2.75;;;1.50;;
68976;SDS011;56029;52.568;13.588;2023-03-26T01:10:42;3.20;;;1.55;;
68976;SDS011;56029;52.568;13.588;2023-03-26T01:13:18;4.78;;;1.80;;
68976;SDS011;56029;52.568;13.588;2023-03-26T01:15:46;3.00;;;1.43;;
68976;SDS011;56029;52.568;13.588;2023-03-26T01:18:20;3.83;;;1.50;;
68976;SDS011;56029;52.568;13.588;2023-03-26T01:20:51;6.78;;;1.60;;
68976;SDS011;56029;52.568;13.588;2023-03-26T01:23:25;3.08;;;1.50;;
68976;SDS011;56029;52.568;13.588;2023-03-26T01:26:20;3.03;;;1.50;;
68976;SDS011;56029;52.568;13.588;2023-03-26T01:29:08;3.20;;;1.30;;
68976;SDS011;56029;52.568;13.588;2023-03-26T01:32:29;2.10;;;1.33;;
68976;SDS011;56029;52.568;13.588;2023-03-26T01:34:55;2.92;;;1.40;;
68976;SDS011;56029;52.568;13.588;2023-03-26T01:37:32;2.20;;;1.30;;
68976;SDS011;56029;52.568;13.588;2023-03-26T01:40:17;2.90;;;1.30;;
68976;SDS011;56029;52.568;13.588;2023-03-26T01:43:18;4.70;;;1.50;;
68976;SDS011;56029;52.568;13.588;2023-03-26T01:45:50;4.22;;;1.30;;
68976;SDS011;56029;52.568;13.588;2023-03-26T01:48:16;4.25;;;1.52;;
68976;SDS011;56029;52.568;13.588;2023-03-26T01:50:43;3.15;;;1.58;;
68976;SDS011;56029;52.568;13.588;2023-03-26T01:53:08;4.20;;;1.60;;
68976;SDS011;56029;52.568;13.588;2023-03-26T01:55:41;3.42;;;1.60;;
68976;SDS011;56029;52.568;13.588;2023-03-26T01:58:34;5.22;;;1.60;;
68976;SDS011;56029;52.568;13.588;2023-03-26T02:01:17;3.25;;;1.50;;
68976;SDS011;56029;52.568;13.588;2023-03-26T02:06:38;4.33;;;1.40;;
68976;SDS011;56029;52.568;13.588;2023-03-26T02:09:10;3.55;;;1.20;;
68976;SDS011;56029;52.568;13.588;2023-03-26T02:11:40;4.13;;;1.42;;
68976;SDS011;56029;52.568;13.588;2023-03-26T02:14:07;2.97;;;1.50;;
68976;SDS011;56029;52.568;13.588;2023-03-26T02:16:33;2.25;;;1.30;;
68976;SDS011;56029;52.568;13.588;2023-03-26T02:18:59;3.67;;;1.77;;
68976;SDS011;56029;52.568;13.588;2023-03-26T02:21:25;2.70;;;1.20;;
68976;SDS011;56029;52.568;13.588;2023-03-26T02:23:52;2.85;;;1.40;;
68976;SDS011;56029;52.568;13.588;2023-03-26T02:26:27;1.85;;;1.05;;
68976;SDS011;56029;52.568;13.588;2023-03-26T02:28:54;2.75;;;1.10;;
68976;SDS011;56029;52.568;13.588;2023-03-26T02:31:20;4.87;;;1.10;;
68976;SDS011;56029;52.568;13.588;2023-03-26T02:33:45;2.40;;;1.10;;
68976;SDS011;56029;52.568;13.588;2023-03-26T02:36:12;2.95;;;1.33;;
68976;SDS011;56029;52.568;13.588;2023-03-26T02:38:38;2.55;;;1.10;;
68976;SDS011;56029;52.568;13.588;2023-03-26T02:41:04;3.00;;;1.40;;
68976;SDS011;56029;52.568;13.588;2023-03-26T02:43:30;2.63;;;1.30;;
68976;SDS011;56029;52.568;13.588;2023-03-26T02:45:56;4.53;;;1.40;;
68976;SDS011;56029;52.568;13.588;2023-03-26T02:48:22;2.53;;;1.30;;
68976;SDS011;56029;52.568;13.588;2023-03-26T02:50:47;3.63;;;1.10;;
68976;SDS011;56029;52.568;13.588;2023-03-26T02:53:18;3.17;;;1.47;;
68976;SDS011;56029;52.568;13.588;2023-03-26T02:55:46;4.63;;;1.63;;
68976;SDS011;56029;52.568;13.588;2023-03-26T02:58:11;4.20;;;1.60;;
68976;SDS011;56029;52.568;13.588;2023-03-26T03:00:42;3.95;;;1.70;;
68976;SDS011;56029;52.568;13.588;2023-03-26T03:03:08;4.13;;;1.73;;
68976;SDS011;56029;52.568;13.588;2023-03-26T03:05:34;3.83;;;1.70;;
68976;SDS011;56029;52.568;13.588;2023-03-26T03:08:02;3.50;;;1.30;;
68976;SDS011;56029;52.568;13.588;2023-03-26T03:10:30;4.10;;;1.70;;
68976;SDS011;56029;52.568;13.588;2023-03-26T03:12:57;4.13;;;1.80;;
68976;SDS011;56029;52.568;13.588;2023-03-26T03:15:23;4.65;;;1.92;;
68976;SDS011;56029;52.568;13.588;2023-03-26T03:17:49;3.65;;;1.95;;
68976;SDS011;56029;52.568;13.588;2023-03-26T03:20:16;3.40;;;1.73;;
68976;SDS011;56029;52.568;13.588;2023-03-26T03:22:42;3.43;;;1.20;;
68976;SDS011;56029;52.568;13.588;2023-03-26T03:25:08;3.70;;;1.67;;
68976;SDS011;56029;52.568;13.588;2023-03-26T03:27:38;5.75;;;2.08;;
68976;SDS011;56029;52.568;13.588;2023-03-26T03:30:08;4.60;;;1.70;;
68976;SDS011;56029;52.568;13.588;2023-03-26T03:32:35;3.40;;;1.70;;
68976;SDS011;56029;52.568;13.588;2023-03-26T03:35:01;4.40;;;1.60;;
68976;SDS011;56029;52.568;13.588;2023-03-26T03:37:27;4.35;;;2.00;;
68976;SDS011;56029;52.568;13.588;2023-03-26T03:39:52;2.27;;;1.30;;
68976;SDS011;56029;52.568;13.588;2023-03-26T03:42:18;3.13;;;1.60;;
68976;SDS011;56029;52.568;13.588;2023-03-26T03:44:43;3.08;;;1.50;;
68976;SDS011;56029;52.568;13.588;2023-03-26T03:47:09;3.97;;;1.50;;
68976;SDS011;56029;52.568;13.588;2023-03-26T03:49:38;5.60;;;2.28;;
68976;SDS011;56029;52.568;13.588;2023-03-26T03:52:04;4.43;;;1.48;;
68976;SDS011;56029;52.568;13.588;2023-03-26T03:54:31;5.20;;;1.52;;
68976;SDS011;56029;52.568;13.588;2023-03-26T03:56:56;4.87;;;1.80;;
68976;SDS011;56029;52.568;13.588;2023-03-26T03:59:22;3.13;;;1.50;;
68976;SDS011;56029;52.568;13.588;2023-03-26T04:01:49;2.47;;;1.53;;
68976;SDS011;56029;52.568;13.588;2023-03-26T04:04:15;4.20;;;1.88;;
68976;SDS011;56029;52.568;13.588;2023-03-26T04:06:41;5.78;;;2.20;;
68976;SDS011;56029;52.568;13.588;2023-03-26T04:09:07;3.63;;;1.80;;
68976;SDS011;56029;52.568;13.588;2023-03-26T04:11:34;6.47;;;2.30;;
68976;SDS011;56029;52.568;13.588;2023-03-26T04:14:00;6.13;;;2.10;;
68976;SDS011;56029;52.568;13.588;2023-03-26T04:16:26;5.50;;;2.05;;
68976;SDS011;56029;52.568;13.588;2023-03-26T04:18:52;4.33;;;1.97;;
68976;SDS011;56029;52.568;13.588;2023-03-26T04:21:17;5.28;;;2.00;;
68976;SDS011;56029;52.568;13.588;2023-03-26T04:23:43;5.50;;;2.20;;
68976;SDS011;56029;52.568;13.588;2023-03-26T04:26:11;3.97;;;1.80;;
68976;SDS011;56029;52.568;13.588;2023-03-26T04:28:44;4.93;;;1.98;;
68976;SDS011;56029;52.568;13.588;2023-03-26T04:31:18;5.25;;;2.15;;
68976;SDS011;56029;52.568;13.588;2023-03-26T04:33:49;3.83;;;1.53;;
68976;SDS011;56029;52.568;13.588;2023-03-26T04:36:21;4.78;;;1.70;;
68976;SDS011;56029;52.568;13.588;2023-03-26T04:38:51;5.47;;;1.77;;
68976;SDS011;56029;52.568;13.588;2023-03-26T04:41:19;4.03;;;1.65;;
68976;SDS011;56029;52.568;13.588;2023-03-26T04:43:46;5.43;;;1.90;;
68976;SDS011;56029;52.568;13.588;2023-03-26T04:46:17;4.53;;;1.70;;
68976;SDS011;56029;52.568;13.588;2023-03-26T04:48:46;5.95;;;2.08;;
68976;SDS011;56029;52.568;13.588;2023-03-26T04:51:12;4.93;;;1.90;;
68976;SDS011;56029;52.568;13.588;2023-03-26T04:53:53;4.72;;;1.70;;
68976;SDS011;56029;52.568;13.588;2023-03-26T04:56:28;5.05;;;1.77;;
68976;SDS011;56029;52.568;13.588;2023-03-26T04:59:02;5.23;;;1.90;;
68976;SDS011;56029;52.568;13.588;2023-03-26T05:01:27;5.22;;;1.80;;
68976;SDS011;56029;52.568;13.588;2023-03-26T05:03:55;5.07;;;1.95;;
68976;SDS011;56029;52.568;13.588;2023-03-26T05:06:23;4.50;;;1.75;;
68976;SDS011;56029;52.568;13.588;2023-03-26T05:08:52;5.10;;;1.88;;
68976;SDS011;56029;52.568;13.588;2023-03-26T05:11:18;5.60;;;1.80;;
68976;SDS011;56029;52.568;13.588;2023-03-26T05:13:44;3.65;;;1.67;;
68976;SDS011;56029;52.568;13.588;2023-03-26T05:16:11;6.55;;;1.67;;
68976;SDS011;56029;52.568;13.588;2023-03-26T05:18:37;4.13;;;1.77;;
68976;SDS011;56029;52.568;13.588;2023-03-26T05:21:03;4.40;;;1.77;;
68976;SDS011;56029;52.568;13.588;2023-03-26T05:23:29;2.92;;;1.50;;
68976;SDS011;56029;52.568;13.588;2023-03-26T05:25:54;5.27;;;1.50;;
68976;SDS011;56029;52.568;13.588;2023-03-26T05:28:20;4.23;;;1.70;;
68976;SDS011;56029;52.568;13.588;2023-03-26T05:30:48;3.67;;;1.60;;
68976;SDS011;56029;52.568;13.588;2023-03-26T05:33:18;5.60;;;1.70;;
68976;SDS011;56029;52.568;13.588;2023-03-26T05:35:46;5.95;;;1.80;;
68976;SDS011;56029;52.568;13.588;2023-03-26T05:38:13;2.13;;;1.10;;
68976;SDS011;56029;52.568;13.588;2023-03-26T05:40:39;3.75;;;1.80;;
68976;SDS011;56029;52.568;13.588;2023-03-26T05:43:05;3.70;;;1.57;;
68976;SDS011;56029;52.568;13.588;2023-03-26T05:45:30;5.00;;;1.73;;
68976;SDS011;56029;52.568;13.588;2023-03-26T05:47:56;5.13;;;1.80;;
68976;SDS011;56029;52.568;13.588;2023-03-26T05:50:21;5.20;;;1.40;;
68976;SDS011;56029;52.568;13.588;2023-03-26T05:52:48;4.55;;;2.03;;
68976;SDS011;56029;52.568;13.588;2023-03-26T05:55:14;4.57;;;1.55;;
68976;SDS011;56029;52.568;13.588;2023-03-26T05:57:40;4.90;;;1.80;;
68976;SDS011;56029;52.568;13.588;2023-03-26T06:00:07;5.55;;;1.80;;
68976;SDS011;56029;52.568;13.588;2023-03-26T06:02:34;4.95;;;1.83;;
68976;SDS011;56029;52.568;13.588;2023-03-26T06:05:00;4.67;;;1.63;;
68976;SDS011;56029;52.568;13.588;2023-03-26T06:07:27;4.00;;;1.70;;
68976;SDS011;56029;52.568;13.588;2023-03-26T06:09:52;3.23;;;1.60;;
68976;SDS011;56029;52.568;13.588;2023-03-26T06:12:18;4.03;;;1.45;;
68976;SDS011;56029;52.568;13.588;2023-03-26T06:14:44;4.43;;;1.50;;
68976;SDS011;56029;52.568;13.588;2023-03-26T06:17:10;4.47;;;1.73;;
68976;SDS011;56029;52.568;13.588;2023-03-26T06:19:36;3.33;;;1.20;;
68976;SDS011;56029;52.568;13.588;2023-03-26T06:22:02;3.67;;;1.05;;
68976;SDS011;56029;52.568;13.588;2023-03-26T06:24:28;2.90;;;1.00;;
68976;SDS011;56029;52.568;13.588;2023-03-26T06:26:53;1.55;;;0.82;;
68976;SDS011;56029;52.568;13.588;2023-03-26T06:29:19;2.17;;;1.00;;
68976;SDS011;56029;52.568;13.588;2023-03-26T06:31:45;1.48;;;0.80;;
68976;SDS011;56029;52.568;13.588;2023-03-26T06:34:10;2.83;;;1.07;;
68976;SDS011;56029;52.568;13.588;2023-03-26T06:36:36;2.80;;;0.90;;
68976;SDS011;56029;52.568;13.588;2023-03-26T06:39:02;2.67;;;0.90;;
68976;SDS011;56029;52.568;13.588;2023-03-26T06:41:28;3.17;;;0.95;;
68976;SDS011;56029;52.568;13.588;2023-03-26T06:43:53;1.73;;;0.83;;
68976;SDS011;56029;52.568;13.588;2023-03-26T06:46:20;1.42;;;0.90;;
68976;SDS011;56029;52.568;13.588;2023-03-26T06:48:47;2.05;;;0.90;;
68976;SDS011;56029;52.568;13.588;2023-03-26T06:51:13;8.00;;;1.00;;
68976;SDS011;56029;52.568;13.588;2023-03-26T06:53:39;4.30;;;0.93;;
68976;SDS011;56029;52.568;13.588;2023-03-26T06:56:04;3.03;;;0.90;;
68976;SDS011;56029;52.568;13.588;2023-03-26T06:58:30;2.17;;;1.07;;
68976;SDS011;56029;52.568;13.588;2023-03-26T07:00:56;2.10;;;1.05;;
68976;SDS011;56029;52.568;13.588;2023-03-26T07:03:21;3.47;;;1.77;;
68976;SDS011;56029;52.568;13.588;2023-03-26T07:05:47;1.80;;;0.98;;
68976;SDS011;56029;52.568;13.588;2023-03-26T07:08:13;3.47;;;1.10;;
68976;SDS011;56029;52.568;13.588;2023-03-26T07:10:39;2.20;;;1.00;;
68976;SDS011;56029;52.568;13.588;2023-03-26T07:13:04;4.23;;;1.33;;
68976;SDS011;56029;52.568;13.588;2023-03-26T07:15:30;2.95;;;1.15;;
68976;SDS011;56029;52.568;13.588;2023-03-26T07:17:56;1.73;;;1.10;;
68976;SDS011;56029;52.568;13.588;2023-03-26T07:20:22;2.08;;;0.80;;
68976;SDS011;56029;52.568;13.588;2023-03-26T07:22:48;3.97;;;1.17;;
68976;SDS011;56029;52.568;13.588;2023-03-26T07:25:14;2.07;;;1.03;;
68976;SDS011;56029;52.568;13.588;2023-03-26T07:27:51;2.75;;;1.10;;
68976;SDS011;56029;52.568;13.588;2023-03-26T07:30:31;5.68;;;1.52;;
68976;SDS011;56029;52.568;13.588;2023-03-26T07:33:17;2.55;;;1.02;;
68976;SDS011;56029;52.568;13.588;2023-03-26T07:35:51;5.13;;;1.15;;
68976;SDS011;56029;52.568;13.588;2023-03-26T07:38:46;4.80;;;1.20;;
68976;SDS011;56029;52.568;13.588;2023-03-26T07:41:23;2.60;;;0.90;;
68976;SDS011;56029;52.568;13.588;2023-03-26T07:46:46;4.50;;;1.00;;
68976;SDS011;56029;52.568;13.588;2023-03-26T07:49:13;5.20;;;1.23;;
68976;SDS011;56029;52.568;13.588;2023-03-26T07:51:39;2.83;;;1.07;;
68976;SDS011;56029;52.568;13.588;2023-03-26T07:54:05;3.53;;;1.10;;
68976;SDS011;56029;52.568;13.588;2023-03-26T07:56:39;3.25;;;1.10;;
68976;SDS011;56029;52.568;13.588;2023-03-26T07:59:30;2.08;;;1.00;;
68976;SDS011;56029;52.568;13.588;2023-03-26T08:05:29;2.70;;;1.07;;
68976;SDS011;56029;52.568;13.588;2023-03-26T08:21:03;2.85;;;1.17;;
68976;SDS011;56029;52.568;13.588;2023-03-26T08:26:25;4.28;;;1.38;;
68976;SDS011;56029;52.568;13.588;2023-03-26T08:31:50;2.08;;;0.98;;
68976;SDS011;56029;52.568;13.588;2023-03-26T08:34:17;3.85;;;1.15;;
68976;SDS011;56029;52.568;13.588;2023-03-26T08:36:42;3.53;;;1.40;;
68976;SDS011;56029;52.568;13.588;2023-03-26T08:39:08;3.47;;;1.30;;
68976;SDS011;56029;52.568;13.588;2023-03-26T08:47:19;3.60;;;1.63;;
68976;SDS011;56029;52.568;13.588;2023-03-26T08:50:11;4.10;;;1.50;;
68976;SDS011;56029;52.568;13.588;2023-03-26T08:55:48;5.40;;;1.70;;
68976;SDS011;56029;52.568;13.588;2023-03-26T08:58:24;6.07;;;1.53;;
68976;SDS011;56029;52.568;13.588;2023-03-26T09:04:37;6.43;;;1.40;;
68976;SDS011;56029;52.568;13.588;2023-03-26T09:26:58;4.87;;;1.53;;
68976;SDS011;56029;52.568;13.588;2023-03-26T09:29:37;4.00;;;1.35;;
68976;SDS011;56029;52.568;13.588;2023-03-26T09:32:28;6.25;;;2.08;;
68976;SDS011;56029;52.568;13.588;2023-03-26T09:40:31;4.80;;;1.67;;
68976;SDS011;56029;52.568;13.588;2023-03-26T09:43:25;4.97;;;1.77;;
68976;SDS011;56029;52.568;13.588;2023-03-26T09:46:26;8.93;;;2.10;;
68976;SDS011;56029;52.568;13.588;2023-03-26T09:49:10;5.82;;;1.63;;
68976;SDS011;56029;52.568;13.588;2023-03-26T09:57:12;4.53;;;1.45;;
68976;SDS011;56029;52.568;13.588;2023-03-26T09:59:53;5.35;;;1.80;;
68976;SDS011;56029;52.568;13.588;2023-03-26T10:08:27;5.07;;;1.80;;
68976;SDS011;56029;52.568;13.588;2023-03-26T10:14:27;5.07;;;1.55;;
68976;SDS011;56029;52.568;13.588;2023-03-26T10:20:19;4.25;;;1.45;;
68976;SDS011;56029;52.568;13.588;2023-03-26T10:25:57;5.22;;;1.38;;
68976;SDS011;56029;52.568;13.588;2023-03-26T10:28:39;4.78;;;1.75;;
68976;SDS011;56029;52.568;13.588;2023-03-26T10:31:32;5.55;;;1.48;;
68976;SDS011;56029;52.568;13.588;2023-03-26T10:39:45;5.90;;;1.70;;
68976;SDS011;56029;52.568;13.588;2023-03-26T10:45:52;4.15;;;1.80;;
68976;SDS011;56029;52.568;13.588;2023-03-26T10:48:34;3.90;;;1.80;;
68976;SDS011;56029;52.568;13.588;2023-03-26T10:53:53;6.85;;;2.00;;
68976;SDS011;56029;52.568;13.588;2023-03-26T10:56:34;7.20;;;2.20;;
68976;SDS011;56029;52.568;13.588;2023-03-26T10:59:05;8.70;;;2.17;;
68976;SDS011;56029;52.568;13.588;2023-03-26T11:06:54;7.45;;;2.50;;
68976;SDS011;56029;52.568;13.588;2023-03-26T11:09:45;6.93;;;2.72;;
68976;SDS011;56029;52.568;13.588;2023-03-26T11:12:33;5.18;;;2.10;;
68976;SDS011;56029;52.568;13.588;2023-03-26T11:20:51;7.53;;;2.38;;
68976;SDS011;56029;52.568;13.588;2023-03-26T11:26:19;7.30;;;2.20;;
68976;SDS011;56029;52.568;13.588;2023-03-26T11:29:10;6.50;;;2.45;;
68976;SDS011;56029;52.568;13.588;2023-03-26T11:34:19;5.55;;;2.00;;
68976;SDS011;56029;52.568;13.588;2023-03-26T11:36:50;8.38;;;2.50;;
68976;SDS011;56029;52.568;13.588;2023-03-26T11:39:23;8.40;;;2.60;;
68976;SDS011;56029;52.568;13.588;2023-03-26T11:41:51;11.10;;;2.30;;
68976;SDS011;56029;52.568;13.588;2023-03-26T11:44:24;6.10;;;2.00;;
68976;SDS011;56029;52.568;13.588;2023-03-26T11:46:58;6.78;;;2.17;;
68976;SDS011;56029;52.568;13.588;2023-03-26T11:49:28;5.05;;;2.00;;
68976;SDS011;56029;52.568;13.588;2023-03-26T11:51:55;6.97;;;2.70;;
68976;SDS011;56029;52.568;13.588;2023-03-26T11:54:21;5.97;;;2.30;;
68976;SDS011;56029;52.568;13.588;2023-03-26T12:04:37;7.20;;;2.40;;
68976;SDS011;56029;52.568;13.588;2023-03-26T12:07:14;6.22;;;2.00;;
68976;SDS011;56029;52.568;13.588;2023-03-26T12:12:48;4.63;;;1.80;;
68976;SDS011;56029;52.568;13.588;2023-03-26T12:15:17;5.95;;;2.00;;
68976;SDS011;56029;52.568;13.588;2023-03-26T12:17:45;4.60;;;2.20;;
68976;SDS011;56029;52.568;13.588;2023-03-26T12:20:45;7.97;;;2.40;;
68976;SDS011;56029;52.568;13.588;2023-03-26T12:23:04;5.88;;;2.00;;
68976;SDS011;56029;52.568;13.588;2023-03-26T12:25:31;6.18;;;2.10;;
68976;SDS011;56029;52.568;13.588;2023-03-26T12:28:02;5.28;;;2.08;;
68976;SDS011;56029;52.568;13.588;2023-03-26T12:30:38;5.50;;;2.10;;
68976;SDS011;56029;52.568;13.588;2023-03-26T12:33:13;5.63;;;1.70;;
68976;SDS011;56029;52.568;13.588;2023-03-26T12:35:42;5.38;;;1.90;;
68976;SDS011;56029;52.568;13.588;2023-03-26T12:38:20;2.88;;;1.60;;
68976;SDS011;56029;52.568;13.588;2023-03-26T12:40:47;8.27;;;1.60;;
68976;SDS011;56029;52.568;13.588;2023-03-26T12:48:58;4.40;;;1.73;;
68976;SDS011;56029;52.568;13.588;2023-03-26T12:51:30;4.97;;;2.05;;
68976;SDS011;56029;52.568;13.588;2023-03-26T13:00:02;3.28;;;1.50;;
68976;SDS011;56029;52.568;13.588;2023-03-26T13:02:53;3.50;;;1.67;;
68976;SDS011;56029;52.568;13.588;2023-03-26T13:08:33;4.32;;;1.50;;
68976;SDS011;56029;52.568;13.588;2023-03-26T13:11:15;3.40;;;1.50;;
68976;SDS011;56029;52.568;13.588;2023-03-26T13:14:19;3.17;;;1.10;;
68976;SDS011;56029;52.568;13.588;2023-03-26T13:20:00;4.35;;;1.50;;
68976;SDS011;56029;52.568;13.588;2023-03-26T13:25:47;4.80;;;1.50;;
68976;SDS011;56029;52.568;13.588;2023-03-26T13:34:26;3.92;;;1.55;;
68976;SDS011;56029;52.568;13.588;2023-03-26T13:42:29;3.28;;;1.40;;
68976;SDS011;56029;52.568;13.588;2023-03-26T13:45:10;3.15;;;1.38;;
68976;SDS011;56029;52.568;13.588;2023-03-26T13:47:56;4.32;;;1.50;;
68976;SDS011;56029;52.568;13.588;2023-03-26T13:53:05;2.20;;;1.20;;
68976;SDS011;56029;52.568;13.588;2023-03-26T13:55:43;3.40;;;1.67;;
68976;SDS011;56029;52.568;13.588;2023-03-26T13:58:15;2.05;;;1.33;;
68976;SDS011;56029;52.568;13.588;2023-03-26T14:06:10;2.33;;;1.20;;
68976;SDS011;56029;52.568;13.588;2023-03-26T14:08:43;3.28;;;1.42;;
68976;SDS011;56029;52.568;13.588;2023-03-26T14:11:19;3.53;;;1.35;;
68976;SDS011;56029;52.568;13.588;2023-03-26T14:13:56;2.13;;;1.30;;
68976;SDS011;56029;52.568;13.588;2023-03-26T14:16:38;3.85;;;1.42;;
68976;SDS011;56029;52.568;13.588;2023-03-26T14:25:06;4.28;;;1.30;;
68976;SDS011;56029;52.568;13.588;2023-03-26T14:33:33;3.77;;;1.80;;
68976;SDS011;56029;52.568;13.588;2023-03-26T14:36:21;2.22;;;1.20;;
68976;SDS011;56029;52.568;13.588;2023-03-26T14:44:23;2.88;;;1.20;;
68976;SDS011;56029;52.568;13.588;2023-03-26T14:55:16;2.22;;;1.20;;
68976;SDS011;56029;52.568;13.588;2023-03-26T14:58:01;3.80;;;1.40;;
68976;SDS011;56029;52.568;13.588;2023-03-26T15:01:04;2.27;;;1.27;;
68976;SDS011;56029;52.568;13.588;2023-03-26T15:04:05;2.70;;;1.20;;
68976;SDS011;56029;52.568;13.588;2023-03-26T15:21:54;2.88;;;1.20;;
68976;SDS011;56029;52.568;13.588;2023-03-26T15:27:28;5.78;;;1.40;;
68976;SDS011;56029;52.568;13.588;2023-03-26T15:35:58;4.60;;;1.90;;
68976;SDS011;56029;52.568;13.588;2023-03-26T15:44:49;2.70;;;1.10;;
68976;SDS011;56029;52.568;13.588;2023-03-26T15:47:35;4.63;;;1.42;;
68976;SDS011;56029;52.568;13.588;2023-03-26T15:50:10;3.78;;;1.60;;
68976;SDS011;56029;52.568;13.588;2023-03-26T15:52:45;3.95;;;1.60;;
68976;SDS011;56029;52.568;13.588;2023-03-26T15:55:33;3.15;;;1.30;;
68976;SDS011;56029;52.568;13.588;2023-03-26T15:58:17;1.90;;;1.20;;
68976;SDS011;56029;52.568;13.588;2023-03-26T16:03:45;6.53;;;2.17;;
68976;SDS011;56029;52.568;13.588;2023-03-26T16:14:23;4.32;;;1.30;;
68976;SDS011;56029;52.568;13.588;2023-03-26T16:17:11;3.03;;;1.40;;
68976;SDS011;56029;52.568;13.588;2023-03-26T16:25:16;5.25;;;1.55;;
68976;SDS011;56029;52.568;13.588;2023-03-26T16:27:47;4.15;;;1.50;;
68976;SDS011;56029;52.568;13.588;2023-03-26T16:30:30;4.97;;;1.58;;
68976;SDS011;56029;52.568;13.588;2023-03-26T16:33:02;5.10;;;2.10;;
68976;SDS011;56029;52.568;13.588;2023-03-26T16:35:39;5.38;;;2.00;;
68976;SDS011;56029;52.568;13.588;2023-03-26T16:38:23;5.78;;;2.78;;
68976;SDS011;56029;52.568;13.588;2023-03-26T16:41:02;7.63;;;2.60;;
68976;SDS011;56029;52.568;13.588;2023-03-26T16:43:40;5.68;;;2.95;;
68976;SDS011;56029;52.568;13.588;2023-03-26T16:46:36;6.07;;;2.90;;
68976;SDS011;56029;52.568;13.588;2023-03-26T16:49:23;6.38;;;2.72;;
68976;SDS011;56029;52.568;13.588;2023-03-26T16:52:09;6.03;;;1.75;;
68976;SDS011;56029;52.568;13.588;2023-03-26T16:54:56;3.05;;;1.40;;
68976;SDS011;56029;52.568;13.588;2023-03-26T16:57:35;4.68;;;1.80;;
68976;SDS011;56029;52.568;13.588;2023-03-26T17:02:52;7.25;;;2.38;;
68976;SDS011;56029;52.568;13.588;2023-03-26T17:13:43;7.00;;;1.87;;
68976;SDS011;56029;52.568;13.588;2023-03-26T17:16:33;3.70;;;1.60;;
68976;SDS011;56029;52.568;13.588;2023-03-26T17:22:03;4.80;;;2.08;;
68976;SDS011;56029;52.568;13.588;2023-03-26T17:24:44;5.50;;;1.90;;
68976;SDS011;56029;52.568;13.588;2023-03-26T17:33:34;5.75;;;2.08;;
68976;SDS011;56029;52.568;13.588;2023-03-26T17:35:48;4.18;;;1.80;;
68976;SDS011;56029;52.568;13.588;2023-03-26T17:40:43;3.30;;;1.40;;
68976;SDS011;56029;52.568;13.588;2023-03-26T17:48:41;4.23;;;1.90;;
68976;SDS011;56029;52.568;13.588;2023-03-26T17:54:18;4.80;;;1.85;;
68976;SDS011;56029;52.568;13.588;2023-03-26T17:57:11;4.85;;;2.05;;
68976;SDS011;56029;52.568;13.588;2023-03-26T17:59:40;5.32;;;2.65;;
68976;SDS011;56029;52.568;13.588;2023-03-26T18:02:11;5.63;;;2.07;;
68976;SDS011;56029;52.568;13.588;2023-03-26T18:04:40;4.97;;;2.15;;
68976;SDS011;56029;52.568;13.588;2023-03-26T18:10:07;4.90;;;1.90;;
68976;SDS011;56029;52.568;13.588;2023-03-26T18:13:09;5.50;;;1.92;;
68976;SDS011;56029;52.568;13.588;2023-03-26T18:18:41;6.05;;;2.30;;
68976;SDS011;56029;52.568;13.588;2023-03-26T18:21:09;5.97;;;2.40;;
68976;SDS011;56029;52.568;13.588;2023-03-26T18:23:43;6.70;;;2.42;;
68976;SDS011;56029;52.568;13.588;2023-03-26T18:26:15;6.93;;;2.58;;
68976;SDS011;56029;52.568;13.588;2023-03-26T18:28:48;5.67;;;2.23;;
68976;SDS011;56029;52.568;13.588;2023-03-26T18:33:44;8.70;;;3.60;;
68976;SDS011;56029;52.568;13.588;2023-03-26T18:36:11;10.57;;;4.38;;
68976;SDS011;56029;52.568;13.588;2023-03-26T18:38:39;9.45;;;4.00;;
68976;SDS011;56029;52.568;13.588;2023-03-26T18:41:14;12.20;;;4.23;;
68976;SDS011;56029;52.568;13.588;2023-03-26T18:43:46;9.05;;;3.60;;
68976;SDS011;56029;52.568;13.588;2023-03-26T18:46:12;8.70;;;2.90;;
68976;SDS011;56029;52.568;13.588;2023-03-26T18:48:39;8.07;;;2.80;;
68976;SDS011;56029;52.568;13.588;2023-03-26T18:51:04;7.03;;;2.90;;
68976;SDS011;56029;52.568;13.588;2023-03-26T18:53:36;9.13;;;3.13;;
68976;SDS011;56029;52.568;13.588;2023-03-26T18:59:05;6.63;;;3.03;;
68976;SDS011;56029;52.568;13.588;2023-03-26T19:01:41;6.78;;;2.60;;
68976;SDS011;56029;52.568;13.588;2023-03-26T19:04:09;7.82;;;3.03;;
68976;SDS011;56029;52.568;13.588;2023-03-26T19:06:37;7.43;;;2.93;;
68976;SDS011;56029;52.568;13.588;2023-03-26T19:09:05;6.82;;;2.47;;
68976;SDS011;56029;52.568;13.588;2023-03-26T19:11:38;8.32;;;2.58;;
68976;SDS011;56029;52.568;13.588;2023-03-26T19:14:17;7.82;;;2.40;;
68976;SDS011;56029;52.568;13.588;2023-03-26T19:16:45;6.60;;;2.33;;
68976;SDS011;56029;52.568;13.588;2023-03-26T19:19:15;5.97;;;2.40;;
68976;SDS011;56029;52.568;13.588;2023-03-26T19:21:44;5.63;;;2.10;;
68976;SDS011;56029;52.568;13.588;2023-03-26T19:24:10;6.70;;;2.00;;
68976;SDS011;56029;52.568;13.588;2023-03-26T19:26:37;6.43;;;2.30;;
68976;SDS011;56029;52.568;13.588;2023-03-26T19:29:03;6.03;;;2.20;;
68976;SDS011;56029;52.568;13.588;2023-03-26T19:31:33;7.87;;;2.20;;
68976;SDS011;56029;52.568;13.588;2023-03-26T19:34:02;5.90;;;2.20;;
68976;SDS011;56029;52.568;13.588;2023-03-26T19:39:34;8.73;;;2.30;;
68976;SDS011;56029;52.568;13.588;2023-03-26T19:42:03;6.33;;;2.37;;
68976;SDS011;56029;52.568;13.588;2023-03-26T19:44:30;6.50;;;2.33;;
68976;SDS011;56029;52.568;13.588;2023-03-26T19:47:04;7.57;;;2.55;;
68976;SDS011;56029;52.568;13.588;2023-03-26T19:49:40;9.27;;;2.30;;